x

Newport, Or (nwpo3) Weather Station

8:00am - Mon 31st Aug 2015 All times are PDT. -7 hours from GMT.

  • Wind
    5mph, 6mph gusts
  • Air Temp 58°f
  • Sea Pressure 1018.1mb
  • Newport, Or
  • Newport, Or

More Historic Weather Station data

Upgrade to MSW Pro to gain access to the past 30 days of data for over 8000 Wavebouys and Weather Stations around the globe.

Join Pro

Comparision Forecast

View Surf forecast
   
Mon 08/31 8:00am 5 6 mph 1018.1mb 58f
7:00am 2 3 mph 1017.9mb 57f
6:00am 3 5 mph 1017.8mb 58f
5:00am 5 6 mph 1017.9mb 58f
4:00am 5 6 mph 1018mb 58f
3:00am 5
mph
1018.3mb 59f
2:00am 7 9 mph 1018.4mb 59f
1:00am 7 8 mph 1018.8mb 59f
12:00am 3 5 mph 1018.9mb 58f
Sun 08/30 11:00pm 6 8 mph 1018.9mb 58f
10:00pm 7 8 mph 1019mb 58f
9:00pm 7 8 mph 1018.9mb 58f
8:00pm 8 9 mph 1018.5mb 59f
7:00pm 11 14 mph 1018.4mb 60f
6:00pm 11 14 mph 1018.5mb 61f
5:00pm 14 17 mph 1018.5mb 62f
4:00pm 11 14 mph 1018.5mb 61f
3:00pm 17 20 mph 1018.2mb 62f
2:00pm 16 20 mph 1017.9mb 61f
1:00pm 16 18 mph 1017.5mb 60f
12:00pm 15 17 mph 1017.1mb 60f
11:00am 18 22 mph 1016.3mb 60f
10:00am 16 20 mph 1015.4mb 58f
9:00am 15 17 mph 1014.9mb 59f
8:00am 17 20 mph 1014.1mb 58f
7:00am 18 21 mph 1013.3mb 57f
6:00am 20 23 mph 1012.5mb 58f
5:00am 20 23 mph 1012.3mb 58f
4:00am 23 28 mph 1012.2mb 58f
3:00am 21 25 mph 1011.7mb 58f
2:00am 24 31 mph 1011.4mb 58f
1:00am 21 24 mph 1011.1mb 57f
12:00am 14 16 mph 1010.9mb 56f
Sat 08/29 11:00pm 20 22 mph 1010.8mb 57f
10:00pm 28 32 mph 1010.4mb 59f
9:00pm 26 32 mph 1010.7mb 59f
8:00pm 25 31 mph 1010.9mb 59f
7:00pm 29 36 mph 1010.9mb 59f
6:00pm 28 31 mph 1011.2mb 59f
5:00pm 26 31 mph 1011.1mb 60f
4:00pm 28 32 mph 1011.3mb 61f
3:00pm 28 31 mph 1011.2mb 60f
2:00pm 30 36 mph 1010.8mb 61f
1:00pm 32 39 mph 1010.2mb 60f
12:00pm 36 43 mph 1009.8mb 61f
11:00am 34 41 mph 1009mb 60f
10:00am 33 43 mph 1008mb 60f
9:00am 39 46 mph 1006.7mb 61f
8:00am 46 55 mph 1005.1mb 62f
7:00am 40 53 mph 1003.9mb 62f
6:00am 40 48 mph 1003.6mb 62f
5:00am 38 48 mph 1003.4mb 62f
4:00am 36 39 mph 1003.3mb 61f
3:00am 18 23 mph 1002.6mb 63f
2:00am 20 25 mph 1003.6mb 60f
1:00am 17 20 mph 1003.8mb 63f
12:00am 2
mph
1003.1mb 64f
Fri 08/28 11:00pm 7 8 mph 1003.7mb 64f
10:00pm 2 6 mph 1004.6mb 64f
9:00pm 5 6 mph 1005.4mb 63f
8:00pm 5
mph
1006.2mb 63f
7:00pm 6 7 mph 1007.2mb 59f
6:00pm 14 16 mph 1008.4mb 59f
5:00pm 18 21 mph 1009.2mb 59f
4:00pm 20 21 mph 1009.9mb 59f
3:00pm 16 17 mph 1011mb 60f
2:00pm 14 15 mph 1012mb 60f
1:00pm 11 13 mph 1012.9mb 61f
12:00pm 8 9 mph 1013.6mb 60f
11:00am 7
mph
1014.3mb 61f
10:00am 3 6 mph 1014.4mb 65f
9:00am 6 7 mph 1014.4mb 62f
8:00am 6 8 mph 1014.9mb 59f
7:00am 6 7 mph 1015.9mb 59f
6:00am 5 6 mph 1015.8mb 59f
5:00am 5 6 mph 1016.5mb 59f
4:00am 3 5 mph 1016.7mb 59f
3:00am 1 2 mph 1017mb 59f
2:00am 6 7 mph 1017.3mb 59f
1:00am 8 10 mph 1017.6mb 58f
12:00am 8 10 mph 1017.7mb 59f
Thu 08/27 11:00pm  -  1 mph 1017.6mb 61f
10:00pm 3
mph
1017.6mb 61f
9:00pm 5
mph
1017.6mb 58f
8:00pm 3 5 mph 1017mb 59f
7:00pm 5
mph
1017.2mb 59f
6:00pm 6 7 mph 1017.7mb 60f
5:00pm 5 6 mph 1017.3mb 61f